createdAt,value
2023-03-13T00:08:54.933Z,99341.47
2023-03-13T00:18:58.328Z,99340.13
2023-03-13T00:29:00.642Z,99325.72
2023-03-13T00:39:04.836Z,99307.47
2023-03-13T00:49:07.228Z,99283.91
2023-03-13T00:59:09.406Z,99259.38
2023-03-13T01:09:14.262Z,99242.41
2023-03-13T01:19:17.579Z,99212.91
2023-03-13T01:29:20.862Z,99180.97
2023-03-13T01:39:23.722Z,99167.19
2023-03-13T01:49:33.373Z,99157.81
2023-03-13T01:59:47.561Z,99121.16
2023-03-13T02:09:52.115Z,99100.63
2023-03-13T02:19:54.513Z,99065.84
2023-03-13T02:29:57.841Z,99045.25
2023-03-13T02:40:04.669Z,99006.06
2023-03-13T02:50:07.705Z,99003.50
2023-03-13T03:00:13.006Z,98978.28
2023-03-13T03:10:16.995Z,98966.63
2023-03-13T03:20:19.185Z,98949.16
2023-03-13T03:30:22.403Z,98942.63
2023-03-13T03:40:27.080Z,98923.03
2023-03-13T03:50:29.552Z,98918.56
2023-03-13T04:00:35.777Z,98910.72
2023-03-13T04:10:38.158Z,98906.75
2023-03-13T04:20:40.748Z,98915.88
2023-03-13T04:30:43.534Z,98897.16
2023-03-13T04:40:56.555Z,98872.38
2023-03-13T04:51:22.247Z,98872.97
2023-03-13T05:01:44.725Z,98862.47
2023-03-13T05:12:00.601Z,98853.38
2023-03-13T05:22:25.857Z,98851.84
2023-03-13T05:32:52.143Z,98836.78
2023-03-13T05:43:14.138Z,98830.63
2023-03-13T05:53:23.296Z,98829.09
2023-03-13T06:03:46.859Z,98844.31
2023-03-13T06:13:53.856Z,98819.84
2023-03-13T06:24:22.782Z,98796.41
2023-03-13T06:34:25.086Z,98805.56
2023-03-13T06:44:27.514Z,98816.44
2023-03-13T06:54:30.002Z,98801.19
2023-03-13T07:04:32.061Z,98828.13
2023-03-13T07:14:34.478Z,98810.47
2023-03-13T07:24:36.614Z,98825.06
2023-03-13T07:34:38.971Z,98804.47
2023-03-13T07:44:41.353Z,98781.53
2023-03-13T07:54:43.722Z,98773.41
2023-03-13T08:04:46.077Z,98754.06
2023-03-13T08:14:48.166Z,98764.75
2023-03-13T08:24:50.566Z,98746.22
2023-03-13T08:34:52.743Z,98755.28
2023-03-13T08:44:55.023Z,98754.41
2023-03-13T08:54:57.323Z,98771.47
2023-03-13T09:04:59.448Z,98787.69
2023-03-13T09:15:01.560Z,98790.53
2023-03-13T09:25:03.996Z,98767.66
2023-03-13T09:35:06.473Z,98740.66
2023-03-13T09:45:33.967Z,98738.56
2023-03-13T09:55:37.097Z,98734.16
2023-03-13T10:05:51.963Z,98731.88
2023-03-13T10:15:57.195Z,98726.94
2023-03-13T10:25:59.636Z,98717.38
2023-03-13T10:36:03.882Z,98694.16
2023-03-13T10:46:06.460Z,98681.72
2023-03-13T10:56:12.799Z,98649.47
2023-03-13T11:06:32.565Z,98643.75
2023-03-13T11:16:41.247Z,98626.63
2023-03-13T11:27:04.167Z,98623.81
2023-03-13T11:37:12.942Z,98626.28
2023-03-13T11:47:41.264Z,98595.03
2023-03-13T11:58:19.849Z,98564.03
2023-03-13T12:08:36.611Z,98570.97
2023-03-13T12:18:41.132Z,98535.66
2023-03-13T12:28:47.870Z,98513.13
2023-03-13T12:38:59.629Z,98516.00
2023-03-13T12:49:22.336Z,98498.56
2023-03-13T12:59:34.858Z,98500.63
2023-03-13T13:09:40.085Z,98496.56
2023-03-13T13:19:42.383Z,98472.69
2023-03-13T13:29:44.699Z,98448.34
2023-03-13T13:39:50.398Z,98445.97
2023-03-13T13:49:57.118Z,98437.91
2023-03-13T14:00:22.043Z,98430.22
2023-03-13T14:10:47.100Z,98416.78
2023-03-13T14:20:54.111Z,98411.19
2023-03-13T14:30:57.838Z,98390.06
2023-03-13T14:41:00.076Z,98365.81
2023-03-13T14:51:15.488Z,98351.31
2023-03-13T15:01:25.949Z,98352.13
2023-03-13T15:11:30.645Z,98309.78
2023-03-13T15:21:34.132Z,98313.28
2023-03-13T15:31:36.865Z,98295.88
2023-03-13T15:41:39.135Z,98286.63
2023-03-13T15:51:42.342Z,98267.97
2023-03-13T16:01:45.325Z,98250.19
2023-03-13T16:11:47.699Z,98209.72
2023-03-13T16:21:50.549Z,98213.81
2023-03-13T16:31:52.712Z,98191.88
2023-03-13T16:41:56.098Z,98211.47
2023-03-13T16:51:58.338Z,98194.41
2023-03-13T17:02:00.587Z,98183.94
2023-03-13T17:12:03.989Z,98185.19
2023-03-13T17:22:06.488Z,98188.00
2023-03-13T17:32:13.562Z,98193.69
2023-03-13T17:42:17.404Z,98207.41
2023-03-13T17:52:19.681Z,98183.16
2023-03-13T18:02:23.051Z,98184.75
2023-03-13T18:12:25.530Z,98159.72
2023-03-13T18:22:28.025Z,98135.50
2023-03-13T18:32:30.261Z,98124.16
2023-03-13T18:42:34.912Z,98144.38
2023-03-13T18:52:37.231Z,98150.41
2023-03-13T19:02:39.322Z,98161.84
2023-03-13T19:12:41.489Z,98159.28
2023-03-13T19:22:43.639Z,98145.84
2023-03-13T19:32:46.221Z,98137.00
2023-03-13T19:42:48.800Z,98128.88
2023-03-13T19:52:51.193Z,98093.63
2023-03-13T20:02:55.186Z,98060.38
2023-03-13T20:12:57.705Z,98059.34
2023-03-13T20:23:01.219Z,98071.41
2023-03-13T20:33:03.936Z,98089.31
2023-03-13T20:43:07.115Z,98090.84
2023-03-13T20:53:10.272Z,98104.13
2023-03-13T21:03:15.031Z,98086.38
2023-03-13T21:13:17.399Z,98067.13
2023-03-13T21:23:19.963Z,98085.88
2023-03-13T21:33:22.629Z,98064.53
2023-03-13T21:43:28.210Z,98021.03
2023-03-13T21:53:30.592Z,98006.66
2023-03-13T22:03:32.821Z,98018.47
2023-03-13T22:13:35.180Z,98024.09
2023-03-13T22:23:38.401Z,98064.31
2023-03-13T22:33:40.588Z,98077.81
2023-03-13T22:43:43.132Z,98101.69
2023-03-13T22:53:45.526Z,98087.28
2023-03-13T23:03:47.660Z,98069.91
2023-03-13T23:13:49.764Z,98035.97
2023-03-13T23:23:54.068Z,98010.16
2023-03-13T23:33:56.520Z,97995.53
2023-03-13T23:44:00.781Z,98036.31
2023-03-13T23:54:03.254Z,98008.03
